sensor_id;sensor_type;location;lat;lon;timestamp;pressure;altitude;pressure_sealevel;temperature;humidity
65013;BME280;51715;39.432;-77.518;2023-08-06T00:00:44;99491.75;;;30.98;30.27
65013;BME280;51715;39.432;-77.518;2023-08-06T00:03:13;99490.55;;;30.93;29.60
65013;BME280;51715;39.432;-77.518;2023-08-06T00:05:42;99491.91;;;31.15;29.39
65013;BME280;51715;39.432;-77.518;2023-08-06T00:08:11;99490.99;;;30.76;30.38
65013;BME280;51715;39.432;-77.518;2023-08-06T00:10:40;99490.67;;;30.63;30.19
65013;BME280;51715;39.432;-77.518;2023-08-06T00:13:08;99491.05;;;30.54;29.57
65013;BME280;51715;39.432;-77.518;2023-08-06T00:15:36;99490.49;;;30.51;30.16
65013;BME280;51715;39.432;-77.518;2023-08-06T00:18:04;99490.42;;;30.48;30.30
65013;BME280;51715;39.432;-77.518;2023-08-06T00:20:32;99490.68;;;30.47;30.32
65013;BME280;51715;39.432;-77.518;2023-08-06T00:23:01;99493.19;;;30.69;30.55
65013;BME280;51715;39.432;-77.518;2023-08-06T00:25:29;99495.43;;;30.61;30.79
65013;BME280;51715;39.432;-77.518;2023-08-06T00:27:56;99498.75;;;30.48;31.06
65013;BME280;51715;39.432;-77.518;2023-08-06T00:30:25;99498.66;;;30.29;31.20
65013;BME280;51715;39.432;-77.518;2023-08-06T00:32:53;99497.24;;;30.40;31.47
65013;BME280;51715;39.432;-77.518;2023-08-06T00:35:22;99496.91;;;30.33;31.48
65013;BME280;51715;39.432;-77.518;2023-08-06T00:37:50;99498.76;;;30.31;31.67
65013;BME280;51715;39.432;-77.518;2023-08-06T00:40:21;99498.03;;;30.21;31.37
65013;BME280;51715;39.432;-77.518;2023-08-06T00:42:49;99498.68;;;30.15;31.29
65013;BME280;51715;39.432;-77.518;2023-08-06T00:45:17;99498.14;;;30.14;31.28
65013;BME280;51715;39.432;-77.518;2023-08-06T00:47:46;99495.63;;;29.85;32.00
65013;BME280;51715;39.432;-77.518;2023-08-06T00:50:14;99494.45;;;30.01;32.12
65013;BME280;51715;39.432;-77.518;2023-08-06T00:52:42;99494.07;;;29.98;31.79
65013;BME280;51715;39.432;-77.518;2023-08-06T00:55:11;99496.45;;;29.95;31.98
65013;BME280;51715;39.432;-77.518;2023-08-06T00:57:40;99496.77;;;29.82;32.12
65013;BME280;51715;39.432;-77.518;2023-08-06T01:00:10;99498.28;;;29.78;32.24
65013;BME280;51715;39.432;-77.518;2023-08-06T01:02:38;99499.88;;;29.73;32.30
65013;BME280;51715;39.432;-77.518;2023-08-06T01:05:08;99503.77;;;29.68;32.24
65013;BME280;51715;39.432;-77.518;2023-08-06T01:07:51;99505.17;;;29.39;32.14
65013;BME280;51715;39.432;-77.518;2023-08-06T01:10:27;99505.09;;;30.07;32.29
65013;BME280;51715;39.432;-77.518;2023-08-06T01:13:08;99504.03;;;29.54;32.32
65013;BME280;51715;39.432;-77.518;2023-08-06T01:15:43;99506.39;;;30.00;32.74
65013;BME280;51715;39.432;-77.518;2023-08-06T01:18:12;99505.94;;;29.25;33.00
65013;BME280;51715;39.432;-77.518;2023-08-06T01:20:41;99504.68;;;29.49;33.32
65013;BME280;51715;39.432;-77.518;2023-08-06T01:23:10;99510.74;;;29.46;33.66
65013;BME280;51715;39.432;-77.518;2023-08-06T01:25:43;99515.25;;;29.40;34.00
65013;BME280;51715;39.432;-77.518;2023-08-06T01:28:18;99517.09;;;29.31;34.22
65013;BME280;51715;39.432;-77.518;2023-08-06T01:30:52;99515.15;;;29.47;34.21
65013;BME280;51715;39.432;-77.518;2023-08-06T01:33:23;99515.82;;;29.51;34.36
65013;BME280;51715;39.432;-77.518;2023-08-06T01:35:52;99516.81;;;28.83;33.84
65013;BME280;51715;39.432;-77.518;2023-08-06T01:38:22;99517.37;;;29.37;33.19
65013;BME280;51715;39.432;-77.518;2023-08-06T01:40:50;99521.87;;;29.44;33.01
65013;BME280;51715;39.432;-77.518;2023-08-06T01:43:19;99525.47;;;29.44;33.97
65013;BME280;51715;39.432;-77.518;2023-08-06T01:45:48;99527.68;;;29.45;33.48
65013;BME280;51715;39.432;-77.518;2023-08-06T01:48:16;99530.02;;;29.16;33.53
65013;BME280;51715;39.432;-77.518;2023-08-06T01:50:45;99526.83;;;29.34;33.67
65013;BME280;51715;39.432;-77.518;2023-08-06T01:53:13;99523.27;;;29.31;33.53
65013;BME280;51715;39.432;-77.518;2023-08-06T01:55:42;99526.22;;;29.29;33.73
65013;BME280;51715;39.432;-77.518;2023-08-06T01:58:09;99530.44;;;29.23;33.76
65013;BME280;51715;39.432;-77.518;2023-08-06T02:00:39;99527.63;;;28.92;33.78
65013;BME280;51715;39.432;-77.518;2023-08-06T02:03:08;99531.42;;;29.12;34.27
65013;BME280;51715;39.432;-77.518;2023-08-06T02:05:36;99534.67;;;28.84;34.65
65013;BME280;51715;39.432;-77.518;2023-08-06T02:08:04;99538.70;;;29.04;34.42
65013;BME280;51715;39.432;-77.518;2023-08-06T02:10:33;99540.66;;;28.94;34.61
65013;BME280;51715;39.432;-77.518;2023-08-06T02:13:02;99540.12;;;28.86;34.19
65013;BME280;51715;39.432;-77.518;2023-08-06T02:15:31;99541.63;;;28.82;34.07
65013;BME280;51715;39.432;-77.518;2023-08-06T02:18:01;99545.13;;;28.80;34.15
65013;BME280;51715;39.432;-77.518;2023-08-06T02:20:28;99549.27;;;28.76;34.26
65013;BME280;51715;39.432;-77.518;2023-08-06T02:22:56;99548.31;;;28.74;34.15
65013;BME280;51715;39.432;-77.518;2023-08-06T02:25:25;99543.70;;;28.73;35.41
65013;BME280;51715;39.432;-77.518;2023-08-06T02:27:53;99546.72;;;28.63;35.23
65013;BME280;51715;39.432;-77.518;2023-08-06T02:30:21;99548.18;;;28.77;35.06
65013;BME280;51715;39.432;-77.518;2023-08-06T02:32:49;99550.42;;;28.31;35.28
65013;BME280;51715;39.432;-77.518;2023-08-06T02:35:18;99550.48;;;28.56;35.01
65013;BME280;51715;39.432;-77.518;2023-08-06T02:37:46;99547.87;;;28.68;34.93
65013;BME280;51715;39.432;-77.518;2023-08-06T02:40:14;99541.97;;;28.65;35.10
65013;BME280;51715;39.432;-77.518;2023-08-06T02:42:42;99542.09;;;28.61;35.18
65013;BME280;51715;39.432;-77.518;2023-08-06T02:45:11;99539.77;;;28.55;35.25
65013;BME280;51715;39.432;-77.518;2023-08-06T02:47:39;99539.82;;;28.62;35.39
65013;BME280;51715;39.432;-77.518;2023-08-06T02:50:08;99542.47;;;28.79;35.65
65013;BME280;51715;39.432;-77.518;2023-08-06T02:52:36;99544.34;;;28.72;35.75
65013;BME280;51715;39.432;-77.518;2023-08-06T02:55:05;99545.66;;;28.16;36.32
65013;BME280;51715;39.432;-77.518;2023-08-06T02:57:35;99551.35;;;28.09;36.05
65013;BME280;51715;39.432;-77.518;2023-08-06T03:00:03;99557.62;;;28.26;36.06
65013;BME280;51715;39.432;-77.518;2023-08-06T03:02:32;99561.29;;;28.18;36.37
65013;BME280;51715;39.432;-77.518;2023-08-06T03:05:01;99558.95;;;28.15;36.43
65013;BME280;51715;39.432;-77.518;2023-08-06T03:07:29;99557.49;;;28.10;36.56
65013;BME280;51715;39.432;-77.518;2023-08-06T03:09:57;99560.03;;;28.14;36.78
65013;BME280;51715;39.432;-77.518;2023-08-06T03:12:25;99559.83;;;28.15;36.75
65013;BME280;51715;39.432;-77.518;2023-08-06T03:14:53;99562.26;;;27.94;36.92
65013;BME280;51715;39.432;-77.518;2023-08-06T03:17:22;99567.00;;;28.35;37.11
65013;BME280;51715;39.432;-77.518;2023-08-06T03:19:50;99569.17;;;27.98;37.26
65013;BME280;51715;39.432;-77.518;2023-08-06T03:22:18;99571.94;;;27.87;37.76
65013;BME280;51715;39.432;-77.518;2023-08-06T03:24:46;99572.55;;;28.07;37.80
65013;BME280;51715;39.432;-77.518;2023-08-06T03:27:18;99571.89;;;28.04;38.21
65013;BME280;51715;39.432;-77.518;2023-08-06T03:29:49;99570.55;;;27.99;38.22
65013;BME280;51715;39.432;-77.518;2023-08-06T03:32:18;99573.18;;;27.94;38.46
65013;BME280;51715;39.432;-77.518;2023-08-06T03:34:46;99573.43;;;27.94;38.68
65013;BME280;51715;39.432;-77.518;2023-08-06T03:37:15;99575.98;;;27.92;38.71
65013;BME280;51715;39.432;-77.518;2023-08-06T03:39:43;99579.48;;;27.87;38.92
65013;BME280;51715;39.432;-77.518;2023-08-06T03:42:11;99582.02;;;27.73;39.42
65013;BME280;51715;39.432;-77.518;2023-08-06T03:44:39;99583.73;;;27.74;39.36
65013;BME280;51715;39.432;-77.518;2023-08-06T03:47:08;99588.87;;;27.47;39.14
65013;BME280;51715;39.432;-77.518;2023-08-06T03:49:36;99592.99;;;27.47;39.22
65013;BME280;51715;39.432;-77.518;2023-08-06T03:52:07;99594.53;;;27.79;39.23
65013;BME280;51715;39.432;-77.518;2023-08-06T03:54:36;99590.45;;;27.82;39.06
65013;BME280;51715;39.432;-77.518;2023-08-06T03:57:05;99590.15;;;27.59;39.26
65013;BME280;51715;39.432;-77.518;2023-08-06T03:59:34;99589.59;;;27.87;39.13
65013;BME280;51715;39.432;-77.518;2023-08-06T04:04:03;99588.99;;;28.15;38.05
65013;BME280;51715;39.432;-77.518;2023-08-06T04:06:31;99590.05;;;27.63;38.10
65013;BME280;51715;39.432;-77.518;2023-08-06T04:08:59;99584.04;;;27.64;38.09
65013;BME280;51715;39.432;-77.518;2023-08-06T04:11:27;99585.71;;;28.11;38.16
65013;BME280;51715;39.432;-77.518;2023-08-06T04:13:55;99585.12;;;28.11;38.41
65013;BME280;51715;39.432;-77.518;2023-08-06T04:16:23;99588.32;;;28.16;38.49
65013;BME280;51715;39.432;-77.518;2023-08-06T04:18:51;99590.41;;;28.10;38.55
65013;BME280;51715;39.432;-77.518;2023-08-06T04:21:19;99591.17;;;28.07;38.64
65013;BME280;51715;39.432;-77.518;2023-08-06T04:23:47;99590.61;;;27.96;38.67
65013;BME280;51715;39.432;-77.518;2023-08-06T04:26:15;99589.62;;;27.87;38.80
65013;BME280;51715;39.432;-77.518;2023-08-06T04:28:43;99592.78;;;27.83;38.92
65013;BME280;51715;39.432;-77.518;2023-08-06T04:31:11;99595.80;;;27.80;38.95
65013;BME280;51715;39.432;-77.518;2023-08-06T04:33:39;99599.67;;;27.79;38.94
65013;BME280;51715;39.432;-77.518;2023-08-06T04:36:07;99602.47;;;27.48;39.28
65013;BME280;51715;39.432;-77.518;2023-08-06T04:38:35;99602.95;;;27.72;39.23
65013;BME280;51715;39.432;-77.518;2023-08-06T04:41:04;99599.19;;;27.71;39.09
65013;BME280;51715;39.432;-77.518;2023-08-06T04:43:33;99599.30;;;27.65;39.64
65013;BME280;51715;39.432;-77.518;2023-08-06T04:46:01;99598.78;;;27.61;39.81
65013;BME280;51715;39.432;-77.518;2023-08-06T04:48:29;99599.13;;;27.58;39.78
65013;BME280;51715;39.432;-77.518;2023-08-06T04:50:57;99603.19;;;27.78;39.70
65013;BME280;51715;39.432;-77.518;2023-08-06T04:53:25;99604.34;;;27.52;39.82
65013;BME280;51715;39.432;-77.518;2023-08-06T04:55:53;99607.64;;;27.52;39.75
65013;BME280;51715;39.432;-77.518;2023-08-06T04:58:21;99605.18;;;27.76;40.09
65013;BME280;51715;39.432;-77.518;2023-08-06T05:00:48;99605.07;;;27.74;40.20
65013;BME280;51715;39.432;-77.518;2023-08-06T05:03:17;99601.07;;;27.40;40.69
65013;BME280;51715;39.432;-77.518;2023-08-06T05:05:46;99599.52;;;27.40;40.57
65013;BME280;51715;39.432;-77.518;2023-08-06T05:08:15;99599.25;;;27.40;40.66
65013;BME280;51715;39.432;-77.518;2023-08-06T05:10:43;99595.69;;;27.42;40.35
65013;BME280;51715;39.432;-77.518;2023-08-06T05:13:11;99589.79;;;27.24;41.04
65013;BME280;51715;39.432;-77.518;2023-08-06T05:15:40;99587.69;;;27.23;41.00
65013;BME280;51715;39.432;-77.518;2023-08-06T05:18:08;99593.98;;;27.17;41.26
65013;BME280;51715;39.432;-77.518;2023-08-06T05:20:37;99592.36;;;27.18;40.95
65013;BME280;51715;39.432;-77.518;2023-08-06T05:23:05;99587.04;;;27.19;41.18
65013;BME280;51715;39.432;-77.518;2023-08-06T05:25:35;99584.93;;;27.19;40.86
65013;BME280;51715;39.432;-77.518;2023-08-06T05:28:04;99583.53;;;27.68;40.76
65013;BME280;51715;39.432;-77.518;2023-08-06T05:30:32;99584.28;;;27.47;40.73
65013;BME280;51715;39.432;-77.518;2023-08-06T05:33:01;99581.27;;;27.24;40.65
65013;BME280;51715;39.432;-77.518;2023-08-06T05:35:29;99575.49;;;27.51;41.29
65013;BME280;51715;39.432;-77.518;2023-08-06T05:37:57;99572.10;;;27.25;40.96
65013;BME280;51715;39.432;-77.518;2023-08-06T05:40:25;99575.23;;;27.27;41.06
65013;BME280;51715;39.432;-77.518;2023-08-06T05:42:54;99577.95;;;27.09;40.98
65013;BME280;51715;39.432;-77.518;2023-08-06T05:45:22;99576.67;;;27.11;40.97
65013;BME280;51715;39.432;-77.518;2023-08-06T05:47:50;99579.38;;;27.15;40.96
65013;BME280;51715;39.432;-77.518;2023-08-06T05:50:19;99581.29;;;27.22;40.87
65013;BME280;51715;39.432;-77.518;2023-08-06T05:52:47;99584.19;;;27.20;41.00
65013;BME280;51715;39.432;-77.518;2023-08-06T05:55:15;99588.81;;;27.22;40.93
65013;BME280;51715;39.432;-77.518;2023-08-06T05:57:43;99591.07;;;27.23;41.09
65013;BME280;51715;39.432;-77.518;2023-08-06T06:00:11;99590.92;;;27.18;41.20
65013;BME280;51715;39.432;-77.518;2023-08-06T06:02:39;99592.39;;;26.94;41.16
65013;BME280;51715;39.432;-77.518;2023-08-06T06:05:08;99588.91;;;27.24;41.37
65013;BME280;51715;39.432;-77.518;2023-08-06T06:07:36;99590.83;;;27.16;41.44
65013;BME280;51715;39.432;-77.518;2023-08-06T06:10:05;99591.06;;;27.17;41.35
65013;BME280;51715;39.432;-77.518;2023-08-06T06:12:33;99587.85;;;27.62;41.67
65013;BME280;51715;39.432;-77.518;2023-08-06T06:15:01;99587.11;;;27.20;41.47
65013;BME280;51715;39.432;-77.518;2023-08-06T06:17:29;99587.08;;;27.17;41.30
65013;BME280;51715;39.432;-77.518;2023-08-06T06:19:57;99584.65;;;27.58;41.17
65013;BME280;51715;39.432;-77.518;2023-08-06T06:22:25;99583.72;;;27.14;41.03
65013;BME280;51715;39.432;-77.518;2023-08-06T06:24:53;99581.49;;;27.56;40.93
65013;BME280;51715;39.432;-77.518;2023-08-06T06:27:21;99582.64;;;27.13;41.19
65013;BME280;51715;39.432;-77.518;2023-08-06T06:29:48;99579.39;;;27.56;41.10
65013;BME280;51715;39.432;-77.518;2023-08-06T06:32:17;99573.31;;;27.09;41.17
65013;BME280;51715;39.432;-77.518;2023-08-06T06:34:44;99568.03;;;27.50;41.20
65013;BME280;51715;39.432;-77.518;2023-08-06T06:37:12;99561.62;;;27.49;41.34
65013;BME280;51715;39.432;-77.518;2023-08-06T06:39:41;99559.22;;;27.25;41.35
65013;BME280;51715;39.432;-77.518;2023-08-06T06:42:09;99556.37;;;27.20;41.36
65013;BME280;51715;39.432;-77.518;2023-08-06T06:44:37;99558.50;;;26.95;41.47
65013;BME280;51715;39.432;-77.518;2023-08-06T06:47:05;99558.08;;;27.35;41.43
65013;BME280;51715;39.432;-77.518;2023-08-06T06:49:32;99554.85;;;27.08;41.45
65013;BME280;51715;39.432;-77.518;2023-08-06T06:52:01;99557.52;;;27.06;41.53
65013;BME280;51715;39.432;-77.518;2023-08-06T06:54:29;99561.44;;;27.24;41.57
65013;BME280;51715;39.432;-77.518;2023-08-06T06:56:57;99566.22;;;26.77;41.59
65013;BME280;51715;39.432;-77.518;2023-08-06T06:59:25;99567.06;;;26.97;41.63
65013;BME280;51715;39.432;-77.518;2023-08-06T07:01:53;99572.00;;;27.16;41.59
65013;BME280;51715;39.432;-77.518;2023-08-06T07:04:21;99574.34;;;26.93;41.50
65013;BME280;51715;39.432;-77.518;2023-08-06T07:06:49;99577.54;;;26.88;41.54
65013;BME280;51715;39.432;-77.518;2023-08-06T07:09:17;99580.91;;;27.08;41.54
65013;BME280;51715;39.432;-77.518;2023-08-06T07:11:45;99578.14;;;27.06;41.59
65013;BME280;51715;39.432;-77.518;2023-08-06T07:14:13;99578.42;;;27.02;41.77
65013;BME280;51715;39.432;-77.518;2023-08-06T07:16:41;99578.10;;;26.93;42.04
65013;BME280;51715;39.432;-77.518;2023-08-06T07:19:10;99579.73;;;26.94;42.05
65013;BME280;51715;39.432;-77.518;2023-08-06T07:21:38;99582.76;;;26.92;41.77
65013;BME280;51715;39.432;-77.518;2023-08-06T07:24:06;99583.49;;;26.87;41.99
65013;BME280;51715;39.432;-77.518;2023-08-06T07:26:34;99583.58;;;26.84;41.94
65013;BME280;51715;39.432;-77.518;2023-08-06T07:29:02;99581.91;;;26.84;41.99
65013;BME280;51715;39.432;-77.518;2023-08-06T07:31:30;99579.61;;;26.86;42.25
65013;BME280;51715;39.432;-77.518;2023-08-06T07:33:58;99577.08;;;26.62;42.24
65013;BME280;51715;39.432;-77.518;2023-08-06T07:36:27;99576.25;;;26.62;42.34
65013;BME280;51715;39.432;-77.518;2023-08-06T07:38:54;99578.52;;;26.83;42.38
65013;BME280;51715;39.432;-77.518;2023-08-06T07:41:23;99578.07;;;26.80;42.47
65013;BME280;51715;39.432;-77.518;2023-08-06T07:43:51;99578.23;;;26.74;42.64
65013;BME280;51715;39.432;-77.518;2023-08-06T07:46:19;99578.52;;;26.68;42.68
65013;BME280;51715;39.432;-77.518;2023-08-06T07:48:48;99574.60;;;26.63;42.56
65013;BME280;51715;39.432;-77.518;2023-08-06T07:51:15;99574.99;;;26.51;42.66
65013;BME280;51715;39.432;-77.518;2023-08-06T07:53:45;99571.21;;;26.47;42.62
65013;BME280;51715;39.432;-77.518;2023-08-06T07:56:13;99571.79;;;26.44;42.54
65013;BME280;51715;39.432;-77.518;2023-08-06T07:58:41;99572.85;;;26.40;42.65
65013;BME280;51715;39.432;-77.518;2023-08-06T08:01:09;99571.29;;;26.39;42.56
65013;BME280;51715;39.432;-77.518;2023-08-06T08:03:37;99573.35;;;26.38;42.46
65013;BME280;51715;39.432;-77.518;2023-08-06T08:06:05;99576.36;;;26.32;42.58
65013;BME280;51715;39.432;-77.518;2023-08-06T08:08:33;99573.19;;;26.56;42.62
65013;BME280;51715;39.432;-77.518;2023-08-06T08:11:01;99571.65;;;26.27;42.70
65013;BME280;51715;39.432;-77.518;2023-08-06T08:13:30;99568.24;;;26.26;42.57
65013;BME280;51715;39.432;-77.518;2023-08-06T08:15:58;99561.73;;;26.22;42.54
65013;BME280;51715;39.432;-77.518;2023-08-06T08:18:26;99557.79;;;26.66;42.41
65013;BME280;51715;39.432;-77.518;2023-08-06T08:20:54;99558.49;;;26.10;42.51
65013;BME280;51715;39.432;-77.518;2023-08-06T08:23:22;99554.69;;;26.03;42.59
65013;BME280;51715;39.432;-77.518;2023-08-06T08:25:50;99556.07;;;26.43;42.78
65013;BME280;51715;39.432;-77.518;2023-08-06T08:28:18;99560.46;;;25.89;42.85
65013;BME280;51715;39.432;-77.518;2023-08-06T08:30:47;99559.26;;;26.10;42.78
65013;BME280;51715;39.432;-77.518;2023-08-06T08:33:15;99559.02;;;26.03;42.66
65013;BME280;51715;39.432;-77.518;2023-08-06T08:35:43;99554.80;;;25.96;42.86
65013;BME280;51715;39.432;-77.518;2023-08-06T08:38:13;99558.13;;;25.94;42.84
65013;BME280;51715;39.432;-77.518;2023-08-06T08:40:46;99563.07;;;25.75;43.38
65013;BME280;51715;39.432;-77.518;2023-08-06T08:43:15;99564.34;;;25.47;43.46
65013;BME280;51715;39.432;-77.518;2023-08-06T08:45:44;99568.78;;;26.02;43.31
65013;BME280;51715;39.432;-77.518;2023-08-06T08:48:18;99572.04;;;25.94;43.31
65013;BME280;51715;39.432;-77.518;2023-08-06T08:50:48;99571.77;;;25.92;43.28
65013;BME280;51715;39.432;-77.518;2023-08-06T08:53:18;99572.63;;;25.88;43.29
65013;BME280;51715;39.432;-77.518;2023-08-06T08:55:48;99569.71;;;25.86;43.42
65013;BME280;51715;39.432;-77.518;2023-08-06T08:58:16;99576.25;;;25.83;43.63
65013;BME280;51715;39.432;-77.518;2023-08-06T09:00:46;99574.79;;;25.61;43.39
65013;BME280;51715;39.432;-77.518;2023-08-06T09:03:15;99568.37;;;25.86;43.38
65013;BME280;51715;39.432;-77.518;2023-08-06T09:05:45;99569.70;;;25.68;43.38
65013;BME280;51715;39.432;-77.518;2023-08-06T09:08:21;99569.64;;;25.70;43.46
65013;BME280;51715;39.432;-77.518;2023-08-06T09:10:52;99568.07;;;25.72;43.31
65013;BME280;51715;39.432;-77.518;2023-08-06T09:13:21;99566.34;;;25.76;43.46
65013;BME280;51715;39.432;-77.518;2023-08-06T09:15:49;99568.97;;;26.07;43.32
65013;BME280;51715;39.432;-77.518;2023-08-06T09:18:25;99566.83;;;25.64;43.28
65013;BME280;51715;39.432;-77.518;2023-08-06T09:20:54;99569.49;;;25.46;43.18
65013;BME280;51715;39.432;-77.518;2023-08-06T09:23:28;99575.30;;;26.20;43.12
65013;BME280;51715;39.432;-77.518;2023-08-06T09:25:56;99577.90;;;26.14;43.08
65013;BME280;51715;39.432;-77.518;2023-08-06T09:28:24;99576.53;;;25.88;43.15
65013;BME280;51715;39.432;-77.518;2023-08-06T09:30:53;99575.24;;;26.09;43.24
65013;BME280;51715;39.432;-77.518;2023-08-06T09:33:23;99576.19;;;26.08;43.36
65013;BME280;51715;39.432;-77.518;2023-08-06T09:35:50;99575.35;;;25.84;43.36
65013;BME280;51715;39.432;-77.518;2023-08-06T09:38:19;99577.81;;;25.84;43.31
65013;BME280;51715;39.432;-77.518;2023-08-06T09:40:47;99580.82;;;25.83;43.35
65013;BME280;51715;39.432;-77.518;2023-08-06T09:43:18;99581.18;;;25.81;43.32
65013;BME280;51715;39.432;-77.518;2023-08-06T09:45:47;99580.45;;;25.81;43.32
65013;BME280;51715;39.432;-77.518;2023-08-06T09:48:15;99583.33;;;26.01;43.30
65013;BME280;51715;39.432;-77.518;2023-08-06T09:50:44;99583.48;;;25.76;43.23
65013;BME280;51715;39.432;-77.518;2023-08-06T09:53:12;99578.22;;;25.51;43.22
65013;BME280;51715;39.432;-77.518;2023-08-06T09:55:41;99581.78;;;25.76;43.25
65013;BME280;51715;39.432;-77.518;2023-08-06T09:58:09;99584.14;;;25.97;43.25
65013;BME280;51715;39.432;-77.518;2023-08-06T10:00:38;99583.71;;;25.73;43.26
65013;BME280;51715;39.432;-77.518;2023-08-06T10:03:07;99587.44;;;25.70;43.04
65013;BME280;51715;39.432;-77.518;2023-08-06T10:05:36;99588.73;;;25.67;43.08
65013;BME280;51715;39.432;-77.518;2023-08-06T10:08:06;99586.80;;;25.84;43.19
65013;BME280;51715;39.432;-77.518;2023-08-06T10:10:35;99585.35;;;25.59;43.09
65013;BME280;51715;39.432;-77.518;2023-08-06T10:13:06;99583.72;;;25.57;43.08
65013;BME280;51715;39.432;-77.518;2023-08-06T10:15:35;99589.46;;;25.58;43.08
65013;BME280;51715;39.432;-77.518;2023-08-06T10:18:05;99590.43;;;25.85;43.00
65013;BME280;51715;39.432;-77.518;2023-08-06T10:20:35;99594.80;;;25.68;42.93
65013;BME280;51715;39.432;-77.518;2023-08-06T10:23:04;99592.48;;;25.71;42.76
65013;BME280;51715;39.432;-77.518;2023-08-06T10:25:33;99591.48;;;25.67;42.87
65013;BME280;51715;39.432;-77.518;2023-08-06T10:28:07;99588.07;;;25.85;43.18
65013;BME280;51715;39.432;-77.518;2023-08-06T10:30:42;99592.76;;;25.83;43.44
65013;BME280;51715;39.432;-77.518;2023-08-06T10:33:10;99588.86;;;25.65;43.26
65013;BME280;51715;39.432;-77.518;2023-08-06T10:35:42;99587.91;;;25.88;43.32
65013;BME280;51715;39.432;-77.518;2023-08-06T10:38:12;99588.21;;;25.89;43.35
65013;BME280;51715;39.432;-77.518;2023-08-06T10:40:41;99592.82;;;25.86;43.53
65013;BME280;51715;39.432;-77.518;2023-08-06T10:43:25;99593.23;;;25.84;43.41
65013;BME280;51715;39.432;-77.518;2023-08-06T10:45:54;99591.04;;;25.66;43.18
65013;BME280;51715;39.432;-77.518;2023-08-06T10:48:31;99590.26;;;25.88;43.23
65013;BME280;51715;39.432;-77.518;2023-08-06T10:51:02;99593.13;;;25.65;43.28
65013;BME280;51715;39.432;-77.518;2023-08-06T10:53:31;99596.33;;;25.88;43.34
65013;BME280;51715;39.432;-77.518;2023-08-06T10:56:00;99596.20;;;25.66;43.50
65013;BME280;51715;39.432;-77.518;2023-08-06T10:58:32;99594.40;;;25.68;43.70
65013;BME280;51715;39.432;-77.518;2023-08-06T11:01:00;99591.58;;;25.95;43.72
65013;BME280;51715;39.432;-77.518;2023-08-06T11:03:28;99588.97;;;25.79;43.82
65013;BME280;51715;39.432;-77.518;2023-08-06T11:05:56;99591.52;;;25.61;43.61
65013;BME280;51715;39.432;-77.518;2023-08-06T11:08:25;99595.02;;;25.96;43.53
65013;BME280;51715;39.432;-77.518;2023-08-06T11:10:53;99595.99;;;25.78;43.57
65013;BME280;51715;39.432;-77.518;2023-08-06T11:13:21;99597.44;;;26.13;43.56
65013;BME280;51715;39.432;-77.518;2023-08-06T11:15:49;99598.17;;;26.42;43.67
65013;BME280;51715;39.432;-77.518;2023-08-06T11:18:18;99598.35;;;26.00;43.62
65013;BME280;51715;39.432;-77.518;2023-08-06T11:20:46;99592.66;;;26.09;43.47
65013;BME280;51715;39.432;-77.518;2023-08-06T11:23:15;99591.90;;;26.14;43.53
65013;BME280;51715;39.432;-77.518;2023-08-06T11:25:45;99587.92;;;26.21;43.59
65013;BME280;51715;39.432;-77.518;2023-08-06T11:28:14;99589.77;;;26.35;43.53
65013;BME280;51715;39.432;-77.518;2023-08-06T11:30:42;99593.34;;;26.51;43.53
65013;BME280;51715;39.432;-77.518;2023-08-06T11:33:10;99598.31;;;26.65;43.53
65013;BME280;51715;39.432;-77.518;2023-08-06T11:35:38;99601.98;;;26.80;43.24
65013;BME280;51715;39.432;-77.518;2023-08-06T11:38:06;99601.25;;;26.87;43.18
65013;BME280;51715;39.432;-77.518;2023-08-06T11:40:36;99600.01;;;26.95;43.18
65013;BME280;51715;39.432;-77.518;2023-08-06T11:43:06;99598.46;;;27.08;43.09
65013;BME280;51715;39.432;-77.518;2023-08-06T11:45:36;99604.65;;;26.75;42.71
65013;BME280;51715;39.432;-77.518;2023-08-06T11:48:05;99601.43;;;26.86;42.68
65013;BME280;51715;39.432;-77.518;2023-08-06T11:50:37;99593.69;;;26.97;42.70
65013;BME280;51715;39.432;-77.518;2023-08-06T11:53:06;99591.81;;;27.50;42.68
65013;BME280;51715;39.432;-77.518;2023-08-06T11:55:35;99592.68;;;27.30;43.30
65013;BME280;51715;39.432;-77.518;2023-08-06T11:58:04;99593.50;;;27.10;43.50
65013;BME280;51715;39.432;-77.518;2023-08-06T12:00:32;99594.21;;;27.14;44.01
65013;BME280;51715;39.432;-77.518;2023-08-06T12:03:00;99595.23;;;27.60;43.87
65013;BME280;51715;39.432;-77.518;2023-08-06T12:05:30;99591.47;;;27.26;44.25
65013;BME280;51715;39.432;-77.518;2023-08-06T12:08:00;99593.66;;;27.83;43.92
65013;BME280;51715;39.432;-77.518;2023-08-06T12:10:30;99596.79;;;28.07;43.21
65013;BME280;51715;39.432;-77.518;2023-08-06T12:12:59;99591.86;;;27.94;42.79
65013;BME280;51715;39.432;-77.518;2023-08-06T12:15:28;99589.24;;;27.87;41.92
65013;BME280;51715;39.432;-77.518;2023-08-06T12:17:56;99589.11;;;28.16;43.48
65013;BME280;51715;39.432;-77.518;2023-08-06T12:20:25;99587.91;;;28.42;43.21
65013;BME280;51715;39.432;-77.518;2023-08-06T12:22:53;99587.27;;;28.25;43.35
65013;BME280;51715;39.432;-77.518;2023-08-06T12:25:23;99583.41;;;28.34;43.09
65013;BME280;51715;39.432;-77.518;2023-08-06T12:27:52;99579.75;;;28.53;43.36
65013;BME280;51715;39.432;-77.518;2023-08-06T12:30:20;99577.66;;;28.58;41.98
65013;BME280;51715;39.432;-77.518;2023-08-06T12:32:48;99578.44;;;28.52;42.29
65013;BME280;51715;39.432;-77.518;2023-08-06T12:35:16;99575.91;;;28.96;41.37
65013;BME280;51715;39.432;-77.518;2023-08-06T12:37:45;99571.96;;;29.30;41.23
65013;BME280;51715;39.432;-77.518;2023-08-06T12:40:14;99572.85;;;29.43;42.18
65013;BME280;51715;39.432;-77.518;2023-08-06T12:42:42;99575.70;;;29.14;42.04
65013;BME280;51715;39.432;-77.518;2023-08-06T12:45:11;99575.71;;;29.30;41.80
65013;BME280;51715;39.432;-77.518;2023-08-06T12:47:39;99572.87;;;29.48;41.13
65013;BME280;51715;39.432;-77.518;2023-08-06T12:50:08;99574.10;;;29.42;40.37